Time;durP1;ratioP1;P1;durP2;ratioP2;P2;SDS_P1;SDS_P2;PMS_P1;PMS_P2;Temp;Humidity;BMP_temperature;BMP_pressure;BME280_temperature;BME280_humidity;BME280_pressure;Samples;Min_cycle;Max_cycle;Signal;HPM_P1;HPM_P2
2023/11/17 00:01:30;;;;;;;3.08;0.77;;;;;;;1.54;63.55;99430.28;5050242;28;20041;-38
2023/11/17 00:03:56;;;;;;;2.15;0.60;;;;;;;1.28;63.60;99388.50;5049356;28;20657;-35
2023/11/17 00:06:25;;;;;;;2.00;0.63;;;;;;;1.54;63.42;99429.41;5033497;28;20033;-37
2023/11/17 00:08:51;;;;;;;2.17;1.13;;;;;;;1.54;63.40;99430.28;5033337;28;20037;-36
2023/11/17 00:11:17;;;;;;;1.42;0.80;;;;;;;1.59;63.82;99430.25;5035452;28;20045;-37
2023/11/17 00:13:43;;;;;;;2.72;1.13;;;;;;;1.60;63.84;99440.50;5033486;28;20047;-35
2023/11/17 00:16:09;;;;;;;4.88;0.90;;;;;;;1.60;63.48;99444.78;5029518;28;20045;-36
2023/11/17 00:18:37;;;;;;;2.88;1.15;;;;;;;1.60;63.80;99440.50;5045817;28;20044;-36
2023/11/17 00:21:04;;;;;;;1.83;0.63;;;;;;;1.58;64.12;99437.09;5041154;28;20045;-37
2023/11/17 00:23:30;;;;;;;2.65;0.90;;;;;;;1.60;63.80;99440.50;5049610;28;20052;-35
2023/11/17 00:25:56;;;;;;;1.88;1.08;;;;;;;1.62;63.76;99441.34;5034318;28;20048;-35
2023/11/17 00:28:23;;;;;;;2.03;0.80;;;;;;;1.44;63.70;99413.22;5031875;28;20513;-36
2023/11/17 00:30:49;;;;;;;2.00;0.70;;;;;;;1.59;64.07;99453.31;5052742;28;20041;-36
2023/11/17 00:33:15;;;;;;;2.65;0.80;;;;;;;1.52;63.79;99441.38;5043956;28;20045;-36
2023/11/17 00:35:41;;;;;;;2.13;1.17;;;;;;;1.61;63.91;99449.06;5046106;28;20139;-36
2023/11/17 00:38:07;;;;;;;1.52;0.70;;;;;;;1.66;63.88;99460.16;5046505;28;20127;-36
2023/11/17 00:40:34;;;;;;;1.45;0.50;;;;;;;1.60;63.56;99461.00;5029389;28;20041;-36
2023/11/17 00:43:03;;;;;;;3.47;0.77;;;;;;;1.48;63.50;99429.44;5030015;28;20624;-36
2023/11/17 00:45:30;;;;;;;0.95;0.57;;;;;;;1.59;63.68;99453.31;5039147;28;20088;-35
2023/11/17 00:47:56;;;;;;;3.25;0.98;;;;;;;1.57;63.58;99466.13;5058574;28;20053;-35
2023/11/17 00:50:23;;;;;;;1.60;0.95;;;;;;;1.53;63.92;99459.31;5049444;28;20048;-40
2023/11/17 00:52:49;;;;;;;1.23;0.40;;;;;;;1.55;63.60;99464.44;5033369;28;20037;-37
2023/11/17 00:55:15;;;;;;;1.17;0.68;;;;;;;1.56;63.64;99473.84;5045729;28;20045;-37
2023/11/17 00:57:42;;;;;;;1.02;0.77;;;;;;;1.59;63.87;99469.53;5032857;28;20144;-36
2023/11/17 01:00:11;;;;;;;1.60;0.93;;;;;;;1.59;63.75;99464.41;5042479;28;20041;-37
2023/11/17 01:02:41;;;;;;;1.83;1.10;;;;;;;1.60;63.77;99476.38;5031214;28;20041;-36
2023/11/17 01:05:09;;;;;;;;;;;;;;;1.62;63.89;99466.13;5030529;28;20114;-36
2023/11/17 01:07:36;;;;;;;3.83;0.98;;;;;;;1.57;63.78;99470.41;5032463;28;19966;-37
2023/11/17 01:10:05;;;;;;;1.10;0.73;;;;;;;1.56;63.43;99468.72;5045100;28;20064;-37
2023/11/17 01:12:32;;;;;;;1.58;0.70;;;;;;;1.54;63.29;99466.13;5032183;28;20608;-36
2023/11/17 01:14:58;;;;;;;2.05;0.70;;;;;;;1.49;63.42;99470.41;5035130;28;20041;-37
2023/11/17 01:17:24;;;;;;;1.42;0.75;;;;;;;1.52;62.90;99474.66;5033742;28;20044;-37
2023/11/17 01:19:50;;;;;;;1.60;0.60;;;;;;;1.52;63.15;99480.66;5047966;28;20059;-36
2023/11/17 01:22:18;;;;;;;1.30;0.75;;;;;;;1.53;63.03;99484.06;5031025;28;20098;-36
2023/11/17 01:24:44;;;;;;;3.58;0.98;;;;;;;1.52;63.05;99483.22;5044973;28;20042;-36
2023/11/17 01:27:11;;;;;;;1.73;0.80;;;;;;;1.48;63.28;99476.38;5033639;28;20056;-36
2023/11/17 01:29:36;;;;;;;1.90;0.90;;;;;;;1.48;63.21;99483.22;5048182;28;20806;-36
2023/11/17 01:32:02;;;;;;;1.60;0.70;;;;;;;1.50;63.08;99494.31;5047152;28;20045;-36
2023/11/17 01:34:29;;;;;;;3.28;1.15;;;;;;;1.49;63.02;99493.47;5031944;28;20045;-36
2023/11/17 01:36:55;;;;;;;2.95;0.90;;;;;;;1.33;62.92;99466.16;5044273;28;20420;-37
2023/11/17 01:39:21;;;;;;;2.97;0.82;;;;;;;1.55;62.90;99497.75;5037485;28;20203;-35
2023/11/17 01:41:48;;;;;;;2.88;0.70;;;;;;;1.53;63.14;99499.44;5047376;28;20466;-37
2023/11/17 01:44:14;;;;;;;2.83;0.77;;;;;;;1.41;62.91;99481.53;5045923;28;20045;-36
2023/11/17 01:46:40;;;;;;;1.50;0.60;;;;;;;1.52;63.13;99507.97;5029517;28;20037;-35
2023/11/17 01:49:06;;;;;;;1.45;0.55;;;;;;;1.48;62.53;99503.72;5031066;28;20037;-37
2023/11/17 01:51:32;;;;;;;2.55;1.15;;;;;;;1.48;63.01;99506.28;5046929;28;20033;-36
2023/11/17 01:53:58;;;;;;;2.72;0.90;;;;;;;1.49;62.46;99510.53;5047529;28;20127;-36
2023/11/17 01:56:25;;;;;;;1.63;0.95;;;;;;;1.35;62.69;99484.09;5032535;28;20037;-35
2023/11/17 01:58:51;;;;;;;1.88;0.60;;;;;;;1.49;62.82;99511.41;5032507;28;20203;-35
2023/11/17 02:01:17;;;;;;;1.70;0.88;;;;;;;1.52;62.74;99511.38;5024204;28;20037;-37
2023/11/17 02:03:43;;;;;;;2.08;1.02;;;;;;;1.49;62.50;99521.66;5036885;28;20505;-36
2023/11/17 02:06:57;;;;;;;2.05;0.77;;;;;;;1.50;62.44;99527.63;5048212;28;20501;-37
2023/11/17 02:09:29;;;;;;;2.38;0.77;;;;;;;1.48;62.83;99534.44;4991700;28;20049;-44
2023/11/17 02:12:23;;;;;;;2.00;0.70;;;;;;;1.45;62.46;99535.31;5027854;28;20041;-36
2023/11/17 02:14:56;;;;;;;2.40;0.95;;;;;;;1.45;62.54;99535.31;5016279;28;20517;-36
2023/11/17 02:17:28;;;;;;;6.03;1.17;;;;;;;1.45;62.39;99529.34;5031500;28;20045;-36
2023/11/17 02:19:57;;;;;;;2.85;1.10;;;;;;;1.39;62.33;99537.03;5032712;28;20043;-36
2023/11/17 02:22:30;;;;;;;1.73;0.85;;;;;;;1.37;61.95;99543.84;5038710;28;20044;-35
2023/11/17 02:25:15;;;;;;;3.15;1.25;;;;;;;1.39;62.14;99539.59;5031243;28;20036;-36
2023/11/17 02:27:46;;;;;;;3.03;1.30;;;;;;;1.39;62.14;99547.25;5047126;28;20103;-36
2023/11/17 02:30:19;;;;;;;2.25;1.10;;;;;;;1.41;62.15;99543.00;5032446;28;20044;-37
2023/11/17 02:32:50;;;;;;;2.67;0.65;;;;;;;1.43;62.28;99548.97;5032284;28;20128;-35
2023/11/17 02:35:16;;;;;;;12.20;1.23;;;;;;;1.19;62.70;99509.72;5037912;28;20108;-35
2023/11/17 02:37:43;;;;;;;3.08;1.23;;;;;;;1.39;62.54;99543.00;5033077;28;20536;-37
2023/11/17 02:40:19;;;;;;;2.13;0.80;;;;;;;1.37;62.75;99549.81;5038098;28;20061;-36
2023/11/17 02:42:51;;;;;;;3.50;1.27;;;;;;;1.40;62.77;99551.53;5037265;28;20045;-36
2023/11/17 02:45:20;;;;;;;3.63;1.23;;;;;;;1.41;62.66;99556.66;5028613;28;20041;-37
2023/11/17 02:47:48;;;;;;;2.08;1.05;;;;;;;1.39;62.79;99554.94;5060629;28;20049;-36
2023/11/17 02:50:18;;;;;;;2.25;1.08;;;;;;;1.40;62.97;99556.66;5031078;28;20037;-36
2023/11/17 02:53:10;;;;;;;2.75;1.10;;;;;;;1.38;63.23;99556.66;5034961;28;20110;-36
2023/11/17 02:55:37;;;;;;;3.15;1.23;;;;;;;1.34;63.04;99567.75;5042455;28;20044;-36
2023/11/17 02:58:04;;;;;;;2.15;1.10;;;;;;;1.32;62.82;99563.47;5033354;28;20132;-37
2023/11/17 03:00:31;;;;;;;3.10;1.35;;;;;;;1.35;63.37;99566.06;5035059;28;20059;-37
2023/11/17 03:03:00;;;;;;;1.88;1.00;;;;;;;1.33;63.28;99566.03;5026796;28;20041;-36
2023/11/17 03:05:26;;;;;;;2.58;1.17;;;;;;;1.34;63.03;99575.44;5030254;28;20037;-36
2023/11/17 03:07:53;;;;;;;3.03;1.42;;;;;;;1.34;63.41;99577.13;5050898;28;20076;-37
2023/11/17 03:10:19;;;;;;;4.70;1.15;;;;;;;1.33;63.95;99581.41;5032004;28;20049;-36
2023/11/17 03:12:45;;;;;;;2.45;1.02;;;;;;;1.33;63.64;99576.28;5050353;28;20319;-36
2023/11/17 03:15:11;;;;;;;2.53;1.02;;;;;;;1.35;63.09;99591.66;5049475;28;20429;-36
2023/11/17 03:17:40;;;;;;;2.22;0.77;;;;;;;1.33;63.41;99585.66;5050916;28;20041;-36
2023/11/17 03:20:15;;;;;;;2.88;1.10;;;;;;;1.30;63.39;99585.69;5037859;28;20516;-37
2023/11/17 03:22:45;;;;;;;2.20;1.15;;;;;;;1.29;63.14;99584.81;5039501;28;20037;-37
2023/11/17 03:25:15;;;;;;;2.50;1.23;;;;;;;1.32;63.05;99587.38;5035215;28;20551;-36
2023/11/17 03:27:43;;;;;;;5.40;1.20;;;;;;;1.15;63.26;99564.31;5035774;28;20077;-37
2023/11/17 03:30:12;;;;;;;3.88;1.20;;;;;;;1.31;63.27;99595.06;5050494;28;20039;-38
2023/11/17 03:32:39;;;;;;;3.50;1.20;;;;;;;1.05;62.99;99544.66;5049404;28;20068;-36
2023/11/17 03:35:05;;;;;;;6.70;1.50;;;;;;;1.33;63.30;99589.09;5032025;28;20045;-36
2023/11/17 03:37:31;;;;;;;3.55;1.20;;;;;;;1.32;62.83;99591.63;5034609;28;20043;-39
2023/11/17 03:39:57;;;;;;;3.85;1.80;;;;;;;1.30;62.95;99595.94;5033756;28;20080;-36
2023/11/17 03:42:23;;;;;;;2.75;1.35;;;;;;;1.30;62.98;99586.53;5049343;28;20421;-36
2023/11/17 03:44:49;;;;;;;5.38;0.82;;;;;;;1.23;62.47;99598.47;5040132;28;20033;-37
2023/11/17 03:47:15;;;;;;;2.03;1.10;;;;;;;1.20;62.20;99590.75;5034349;28;20041;-37
2023/11/17 03:49:43;;;;;;;4.38;1.70;;;;;;;1.19;61.93;99599.31;5019912;28;20045;-38
2023/11/17 03:52:14;;;;;;;2.85;1.20;;;;;;;1.18;61.81;99602.72;5044497;28;20124;-37
2023/11/17 03:54:40;;;;;;;1.35;0.70;;;;;;;1.12;61.52;99602.72;5033845;28;20705;-39
2023/11/17 03:57:06;;;;;;;3.75;1.33;;;;;;;1.09;61.18;99605.28;5034263;28;20037;-37
2023/11/17 03:59:32;;;;;;;9.13;1.40;;;;;;;1.08;61.13;99600.16;5042801;28;20073;-36
2023/11/17 04:01:58;;;;;;;2.60;1.30;;;;;;;1.08;60.99;99605.25;5033333;28;20045;-37
2023/11/17 04:04:27;;;;;;;2.15;0.77;;;;;;;1.07;60.98;99612.09;5046675;28;20056;-37
2023/11/17 04:06:55;;;;;;;3.55;0.93;;;;;;;1.09;60.95;99615.50;5033998;28;20034;-37
2023/11/17 04:09:23;;;;;;;1.65;0.75;;;;;;;1.09;60.80;99622.34;5034425;28;20075;-37
2023/11/17 04:12:00;;;;;;;4.78;0.90;;;;;;;1.04;60.27;99619.78;5033067;28;20385;-38
2023/11/17 04:14:37;;;;;;;1.63;1.00;;;;;;;1.03;60.23;99622.31;5036900;28;20045;-37
2023/11/17 04:17:03;;;;;;;2.55;1.00;;;;;;;1.00;60.12;99624.84;5042895;28;20075;-37
2023/11/17 04:19:30;;;;;;;2.50;0.70;;;;;;;0.96;60.10;99626.56;5038389;28;20041;-36
2023/11/17 04:21:55;;;;;;;1.95;0.77;;;;;;;0.96;59.67;99624.00;5052422;28;20044;-36
2023/11/17 04:24:21;;;;;;;2.17;0.82;;;;;;;0.96;60.10;99624.00;5052957;28;20036;-37
2023/11/17 04:26:48;;;;;;;2.03;1.20;;;;;;;0.91;59.65;99624.84;5046110;28;20386;-35
2023/11/17 04:29:14;;;;;;;1.85;0.75;;;;;;;0.91;60.08;99635.94;5049132;28;20051;-36
2023/11/17 04:31:41;;;;;;;2.55;1.27;;;;;;;0.90;59.58;99634.22;5055720;28;20094;-36
2023/11/17 04:34:11;;;;;;;2.33;1.00;;;;;;;0.86;59.91;99637.63;5051319;28;20047;-36
2023/11/17 04:36:37;;;;;;;1.15;0.63;;;;;;;0.81;59.89;99641.84;5035392;28;20075;-37
2023/11/17 04:39:11;;;;;;;4.07;1.23;;;;;;;0.74;59.83;99633.28;5055256;28;20496;-35
2023/11/17 04:41:37;;;;;;;2.10;1.00;;;;;;;0.76;59.93;99648.66;5033156;28;20568;-36
2023/11/17 04:44:03;;;;;;;4.05;1.13;;;;;;;0.77;60.04;99646.13;5033931;28;20061;-37
2023/11/17 04:46:29;;;;;;;1.23;0.68;;;;;;;0.76;59.91;99654.63;5032828;28;20079;-37
2023/11/17 04:48:55;;;;;;;6.65;1.20;;;;;;;0.71;60.19;99652.91;5030575;28;20049;-37
2023/11/17 04:51:21;;;;;;;5.50;1.35;;;;;;;0.61;60.63;99656.25;5031288;28;20159;-37
2023/11/17 04:53:47;;;;;;;3.03;1.20;;;;;;;0.56;60.88;99652.84;5042366;28;20045;-35
2023/11/17 04:56:13;;;;;;;5.65;1.20;;;;;;;0.47;61.13;99650.25;5032933;28;20053;-37
2023/11/17 04:58:41;;;;;;;5.70;1.40;;;;;;;0.35;61.37;99654.44;5026709;28;20425;-36
2023/11/17 05:01:07;;;;;;;2.50;1.07;;;;;;;0.26;61.55;99658.63;5032578;28;20433;-37
2023/11/17 05:03:35;;;;;;;5.90;1.27;;;;;;;0.14;62.41;99663.66;5032180;28;20295;-36
2023/11/17 05:06:01;;;;;;;20.23;1.40;;;;;;;0.05;62.30;99661.03;5026647;28;20043;-36
2023/11/17 05:08:28;;;;;;;2.75;1.35;;;;;;;-0.04;62.52;99655.00;5036637;28;20512;-42
2023/11/17 05:10:55;;;;;;;2.63;1.30;;;;;;;-0.14;62.76;99660.03;5046743;28;20538;-38
2023/11/17 05:13:22;;;;;;;6.05;1.10;;;;;;;-0.20;63.09;99665.09;5022052;28;20057;-36
2023/11/17 05:15:48;;;;;;;2.90;0.90;;;;;;;-0.31;63.24;99661.56;5031123;28;20041;-40
2023/11/17 05:18:15;;;;;;;3.88;1.25;;;;;;;-0.38;63.86;99664.94;5038342;28;20036;-37
2023/11/17 05:20:42;;;;;;;5.38;1.30;;;;;;;-0.46;63.51;99670.81;5032279;28;20055;-36
2023/11/17 05:23:12;;;;;;;5.93;0.90;;;;;;;-0.49;63.62;99673.34;5037682;28;20454;-37
2023/11/17 05:25:40;;;;;;;3.10;1.30;;;;;;;-0.50;63.94;99684.41;5030088;28;20091;-37
2023/11/17 05:28:09;;;;;;;3.53;1.05;;;;;;;-0.52;64.15;99693.72;5034544;28;20124;-37
2023/11/17 05:30:36;;;;;;;;;;;;;;;-0.57;64.43;99695.38;5037389;28;20041;-37
2023/11/17 05:33:03;;;;;;;4.10;1.45;;;;;;;-1.01;64.67;99643.03;5031635;28;20558;-37
2023/11/17 05:35:29;;;;;;;3.40;1.25;;;;;;;-0.73;64.86;99700.34;5050209;28;20606;-38
2023/11/17 05:37:55;;;;;;;4.68;1.45;;;;;;;-0.73;65.07;99700.34;5044918;28;20038;-37
2023/11/17 05:40:21;;;;;;;3.75;1.20;;;;;;;-0.72;65.08;99699.47;5033943;28;20111;-36
2023/11/17 05:42:47;;;;;;;3.08;1.30;;;;;;;-0.71;65.38;99702.03;5036693;28;20081;-38
2023/11/17 05:45:14;;;;;;;6.65;1.00;;;;;;;-0.86;65.51;99684.88;5040455;28;20064;-36
2023/11/17 05:47:41;;;;;;;2.17;0.90;;;;;;;-0.66;65.29;99707.19;5043584;28;20133;-37
2023/11/17 05:50:11;;;;;;;8.13;1.48;;;;;;;-0.64;65.57;99708.94;5039285;28;20041;-37
2023/11/17 05:52:41;;;;;;;2.58;1.15;;;;;;;-0.63;65.50;99714.91;5039714;28;20429;-37
2023/11/17 05:55:07;;;;;;;2.80;1.33;;;;;;;-0.63;65.66;99720.00;5045898;28;20733;-37
2023/11/17 05:57:33;;;;;;;4.95;1.60;;;;;;;-0.81;65.57;99681.50;5039981;28;20131;-39
2023/11/17 06:00:02;;;;;;;2.10;1.20;;;;;;;-0.58;65.58;99721.78;5026308;28;20195;-38
2023/11/17 06:02:38;;;;;;;3.25;1.73;;;;;;;-0.51;65.39;99727.78;5041002;28;20516;-37
2023/11/17 06:05:04;;;;;;;2.60;1.15;;;;;;;-0.48;65.14;99721.03;5040733;28;20056;-38
2023/11/17 06:07:33;;;;;;;8.00;2.33;;;;;;;-0.49;65.36;99726.13;5043188;28;20029;-36
2023/11/17 06:09:59;;;;;;;9.05;1.50;;;;;;;-0.80;65.32;99676.44;5048287;28;20059;-44
2023/11/17 06:12:26;;;;;;;6.10;2.10;;;;;;;-0.53;65.76;99724.38;5044491;28;20040;-36
2023/11/17 06:14:52;;;;;;;6.18;2.72;;;;;;;-0.54;65.74;99731.19;5046599;28;20053;-38
2023/11/17 06:17:19;;;;;;;8.35;2.10;;;;;;;-0.58;65.80;99734.53;5047389;28;20539;-38
2023/11/17 06:19:45;;;;;;;8.05;1.90;;;;;;;-0.60;65.88;99720.03;5040696;28;20048;-38
2023/11/17 06:22:11;;;;;;;9.13;2.78;;;;;;;-0.45;65.76;99736.38;5038571;28;20454;-36
2023/11/17 06:24:37;;;;;;;12.57;2.60;;;;;;;-0.25;65.84;99734.00;5030437;28;20107;-37
2023/11/17 06:27:04;;;;;;;10.32;2.13;;;;;;;-0.11;65.58;99741.84;5041690;28;20033;-36
2023/11/17 06:29:30;;;;;;;6.10;1.42;;;;;;;-0.13;65.21;99739.25;5033960;28;20041;-37
2023/11/17 06:31:56;;;;;;;8.32;2.05;;;;;;;-0.10;64.68;99751.19;5034968;28;20038;-38
2023/11/17 06:34:22;;;;;;;5.22;1.50;;;;;;;0.04;65.11;99741.09;5033978;28;20113;-37
2023/11/17 06:36:51;;;;;;;3.00;1.33;;;;;;;0.05;64.50;99751.34;5049909;28;20435;-37
2023/11/17 06:39:18;;;;;;;3.75;1.20;;;;;;;0.17;64.81;99755.69;5035366;28;20136;-35
2023/11/17 06:41:48;;;;;;;3.38;1.13;;;;;;;0.33;64.13;99754.97;5035315;28;20048;-37
2023/11/17 06:44:22;;;;;;;5.13;2.28;;;;;;;0.23;63.84;99755.75;5034094;28;20053;-36
2023/11/17 06:46:50;;;;;;;2.97;1.20;;;;;;;0.07;64.07;99736.00;5053940;28;20128;-39
2023/11/17 06:49:19;;;;;;;4.18;1.23;;;;;;;0.22;63.85;99754.88;5048523;28;20072;-37
2023/11/17 06:51:48;;;;;;;;;;;;;;;0.28;63.43;99766.84;5047921;28;20037;-36
2023/11/17 06:54:15;;;;;;;10.07;1.98;;;;;;;0.26;63.22;99764.28;5037425;28;20312;-36
2023/11/17 06:56:42;;;;;;;3.47;1.38;;;;;;;0.22;63.18;99770.22;5033805;28;20118;-36
2023/11/17 06:59:09;;;;;;;3.50;1.60;;;;;;;0.23;63.14;99773.63;5031114;28;20037;-36
2023/11/17 07:01:36;;;;;;;3.08;1.30;;;;;;;0.20;62.86;99769.38;5017579;28;20037;-37
2023/11/17 07:04:04;;;;;;;6.38;1.40;;;;;;;0.21;63.17;99776.16;5047365;28;20037;-38
2023/11/17 07:06:31;;;;;;;5.18;1.40;;;;;;;0.20;62.73;99776.19;5037739;28;20076;-37
2023/11/17 07:08:57;;;;;;;4.25;1.20;;;;;;;-0.03;62.48;99738.50;5033710;28;20093;-37
2023/11/17 07:11:24;;;;;;;1.95;1.02;;;;;;;0.16;62.15;99780.38;5032632;28;20041;-37
2023/11/17 07:13:52;;;;;;;6.82;1.60;;;;;;;0.18;62.61;99778.72;5033227;28;20037;-37
2023/11/17 07:16:20;;;;;;;4.93;1.70;;;;;;;0.29;62.27;99777.09;5035187;28;20040;-36
2023/11/17 07:18:47;;;;;;;4.22;1.58;;;;;;;0.57;62.13;99782.44;5046969;28;20131;-36
2023/11/17 07:21:17;;;;;;;2.10;1.25;;;;;;;0.87;61.40;99792.88;5042851;28;20174;-37
2023/11/17 07:23:45;;;;;;;4.18;1.10;;;;;;;1.06;60.58;99788.72;5041945;28;20087;-36
2023/11/17 07:26:20;;;;;;;6.72;1.50;;;;;;;1.10;60.14;99795.59;5036452;28;20037;-37
2023/11/17 07:28:47;;;;;;;6.63;1.40;;;;;;;0.87;60.34;99759.59;5049231;28;20044;-37
2023/11/17 07:31:15;;;;;;;7.47;1.70;;;;;;;1.00;60.69;99789.53;5034898;28;20129;-37
2023/11/17 07:33:41;;;;;;;6.97;2.17;;;;;;;1.02;60.33;99807.47;5033727;28;20127;-36
2023/11/17 07:36:10;;;;;;;9.52;2.03;;;;;;;1.00;60.19;99796.34;5034879;28;20136;-37
2023/11/17 07:38:37;;;;;;;3.58;1.50;;;;;;;0.90;60.25;99799.69;5032748;28;20052;-37
2023/11/17 07:41:03;;;;;;;4.45;1.08;;;;;;;0.69;59.99;99785.91;5032501;28;20148;-36
2023/11/17 07:43:30;;;;;;;2.38;1.10;;;;;;;0.80;60.10;99802.22;5009569;28;20531;-37
2023/11/17 07:45:56;;;;;;;3.55;1.30;;;;;;;0.81;59.96;99803.94;5033520;28;20132;-37
2023/11/17 07:48:22;;;;;;;2.05;1.40;;;;;;;0.72;59.76;99785.97;5031734;28;20048;-37
2023/11/17 07:50:52;;;;;;;10.32;1.90;;;;;;;0.99;59.49;99812.56;5047111;28;20132;-38
2023/11/17 07:53:18;;;;;;;1.98;1.10;;;;;;;0.95;58.78;99791.19;5034470;28;20045;-37
2023/11/17 07:55:45;;;;;;;2.45;1.42;;;;;;;1.16;58.33;99814.38;5033353;28;20140;-37
2023/11/17 07:58:11;;;;;;;4.10;2.00;;;;;;;1.08;58.08;99795.56;5031996;28;20140;-37
2023/11/17 08:00:37;;;;;;;10.80;1.85;;;;;;;1.24;57.86;99816.97;5034350;28;20135;-38
2023/11/17 08:03:04;;;;;;;4.40;1.45;;;;;;;1.26;57.14;99820.38;5049006;28;20064;-36
2023/11/17 08:05:30;;;;;;;4.25;1.40;;;;;;;1.25;57.12;99814.44;5034268;28;20029;-37
2023/11/17 08:07:57;;;;;;;7.85;1.20;;;;;;;1.23;56.65;99822.94;5032529;28;20038;-36
2023/11/17 08:10:24;;;;;;;2.85;1.20;;;;;;;1.30;56.77;99828.97;5031494;28;20436;-37
2023/11/17 08:12:50;;;;;;;2.80;1.13;;;;;;;1.32;56.85;99828.09;5032405;28;20103;-38
2023/11/17 08:15:17;;;;;;;3.83;1.67;;;;;;;1.21;56.45;99799.88;5031740;28;20039;-36
2023/11/17 08:17:42;;;;;;;5.53;1.63;;;;;;;1.43;56.15;99836.69;5032257;28;20480;-37
2023/11/17 08:20:14;;;;;;;5.03;1.30;;;;;;;1.45;56.09;99834.16;5035428;28;20087;-37
2023/11/17 08:22:42;;;;;;;2.05;0.90;;;;;;;1.33;55.66;99809.34;5035089;28;20347;-37
2023/11/17 08:25:08;;;;;;;1.63;1.00;;;;;;;1.50;55.36;99837.59;5033848;28;20072;-36
2023/11/17 08:27:34;;;;;;;4.32;1.20;;;;;;;1.54;55.40;99844.44;5035753;28;20122;-37
2023/11/17 08:30:00;;;;;;;3.92;1.10;;;;;;;1.57;55.10;99847.03;5048874;28;20159;-38
2023/11/17 08:32:26;;;;;;;1.95;0.98;;;;;;;1.34;54.77;99803.38;5031199;28;20483;-36
2023/11/17 08:34:52;;;;;;;4.85;1.23;;;;;;;1.62;54.47;99847.91;5031538;28;20041;-39
2023/11/17 08:37:18;;;;;;;4.35;1.23;;;;;;;1.62;54.70;99846.16;5033928;28;20057;-37
2023/11/17 08:39:45;;;;;;;4.45;1.50;;;;;;;1.73;54.65;99845.38;5039543;28;20413;-38
2023/11/17 08:42:11;;;;;;;3.03;1.45;;;;;;;1.77;54.37;99854.78;5037278;28;20517;-36
2023/11/17 08:44:38;;;;;;;1.90;0.98;;;;;;;1.72;54.43;99854.78;5033498;28;20048;-36
2023/11/17 08:47:05;;;;;;;2.08;1.00;;;;;;;1.73;53.98;99859.03;5032680;28;20033;-37
2023/11/17 08:49:36;;;;;;;6.95;2.00;;;;;;;1.71;54.36;99860.75;5033299;28;20036;-38
2023/11/17 08:52:05;;;;;;;4.85;0.98;;;;;;;1.56;54.10;99828.25;5033461;28;20520;-38
2023/11/17 08:54:31;;;;;;;1.77;0.70;;;;;;;1.68;54.31;99848.75;5045914;28;20132;-36
2023/11/17 08:56:58;;;;;;;3.72;0.90;;;;;;;1.67;54.18;99854.72;5029923;28;20048;-36
2023/11/17 08:59:24;;;;;;;2.00;1.20;;;;;;;1.46;54.32;99826.50;5032517;28;20045;-38
2023/11/17 09:01:52;;;;;;;3.08;1.00;;;;;;;1.63;54.52;99850.44;5037636;28;20041;-37
2023/11/17 09:04:18;;;;;;;2.75;1.10;;;;;;;1.47;54.52;99819.63;5033151;28;20037;-36
2023/11/17 09:06:44;;;;;;;5.50;1.05;;;;;;;1.65;54.93;99850.47;5034158;28;20437;-37
2023/11/17 09:09:12;;;;;;;6.43;1.10;;;;;;;1.63;54.24;99847.03;5052291;28;20064;-37
2023/11/17 09:11:42;;;;;;;3.60;1.63;;;;;;;1.63;53.91;99852.16;5037030;28;20040;-36
2023/11/17 09:14:10;;;;;;;6.35;0.90;;;;;;;1.62;53.67;99853.03;5053566;28;20068;-39
2023/11/17 09:16:36;;;;;;;4.70;0.63;;;;;;;1.46;53.72;99821.38;5044365;28;20033;-37
2023/11/17 09:19:02;;;;;;;6.50;1.00;;;;;;;1.48;53.57;99832.47;5039275;28;20045;-36
2023/11/17 09:21:31;;;;;;;5.28;0.90;;;;;;;1.43;53.40;99820.47;5016809;28;20041;-37
2023/11/17 09:23:57;;;;;;;5.35;1.00;;;;;;;1.60;53.14;99852.16;5044613;28;20180;-37
2023/11/17 09:26:23;;;;;;;6.35;1.10;;;;;;;1.68;53.21;99863.28;5034281;28;20029;-36
2023/11/17 09:28:49;;;;;;;2.70;1.00;;;;;;;1.51;52.93;99844.44;5029646;28;20036;-37
2023/11/17 09:31:15;;;;;;;1.92;0.77;;;;;;;1.65;52.28;99870.97;5037288;28;20094;-37
2023/11/17 09:33:41;;;;;;;4.15;0.80;;;;;;;1.46;52.28;99831.63;5034534;28;20106;-37
2023/11/17 09:36:07;;;;;;;3.53;1.02;;;;;;;1.47;52.32;99838.44;5025208;28;20045;-37
2023/11/17 09:38:34;;;;;;;3.88;0.88;;;;;;;1.62;52.28;99866.66;5033288;28;20500;-38
2023/11/17 09:41:02;;;;;;;2.13;0.70;;;;;;;1.49;52.15;99861.50;5034783;28;20077;-36
2023/11/17 09:43:36;;;;;;;3.47;0.85;;;;;;;1.51;52.04;99870.06;5036138;28;20037;-37
2023/11/17 09:46:02;;;;;;;4.00;0.73;;;;;;;1.37;52.15;99849.47;5049644;28;20039;-36
2023/11/17 09:48:28;;;;;;;5.03;1.25;;;;;;;1.55;52.40;99876.91;5051051;28;20046;-36
2023/11/17 09:50:56;;;;;;;5.53;1.00;;;;;;;1.54;52.44;99880.31;5034992;28;20037;-39
2023/11/17 09:53:23;;;;;;;3.88;0.98;;;;;;;1.52;52.48;99879.44;5033206;28;20068;-37
2023/11/17 09:55:49;;;;;;;2.40;1.08;;;;;;;1.46;52.86;99880.28;5042595;28;20048;-38
2023/11/17 09:58:16;;;;;;;5.25;1.00;;;;;;;1.10;52.52;99826.31;5031573;28;20049;-37
2023/11/17 10:00:45;;;;;;;1.77;0.75;;;;;;;1.39;52.89;99888.78;5024845;28;20406;-35
2023/11/17 10:03:13;;;;;;;3.22;1.00;;;;;;;1.38;52.81;99886.19;5035198;28;20184;-35
2023/11/17 10:05:41;;;;;;;2.22;0.90;;;;;;;1.18;52.72;99845.97;5033889;28;20063;-37
2023/11/17 10:08:13;;;;;;;7.63;1.20;;;;;;;1.19;52.76;99864.75;5047284;28;20037;-36
2023/11/17 10:10:49;;;;;;;2.05;0.80;;;;;;;1.37;53.04;99897.28;5039574;28;20045;-37
2023/11/17 10:13:18;;;;;;;1.33;0.73;;;;;;;1.32;52.74;99897.25;5038149;28;20041;-37
2023/11/17 10:15:48;;;;;;;2.00;0.85;;;;;;;1.23;53.35;99912.56;5018974;28;20044;-37
2023/11/17 10:18:20;;;;;;;5.75;1.00;;;;;;;1.20;53.25;99908.28;5045047;28;20706;-36
2023/11/17 10:20:47;;;;;;;3.67;0.88;;;;;;;1.24;53.37;99911.72;5054067;28;20044;-36
2023/11/17 10:23:14;;;;;;;3.13;0.85;;;;;;;1.17;53.29;99897.16;5049328;28;20509;-36
2023/11/17 10:25:42;;;;;;;2.33;0.70;;;;;;;0.98;53.61;99877.41;5032293;28;20102;-38
2023/11/17 10:28:09;;;;;;;6.97;1.75;;;;;;;1.21;53.48;99922.78;5047970;28;20045;-37
2023/11/17 10:30:41;;;;;;;2.97;1.45;;;;;;;1.06;54.16;99893.66;5048436;28;20060;-38
2023/11/17 10:33:15;;;;;;;6.60;1.50;;;;;;;1.24;53.93;99922.84;5030838;28;20529;-37
2023/11/17 10:35:43;;;;;;;10.18;2.38;;;;;;;1.32;54.15;99924.56;5035419;28;20090;-36
2023/11/17 10:38:19;;;;;;;5.88;1.70;;;;;;;1.22;54.37;99898.06;5048240;28;20041;-36
2023/11/17 10:40:45;;;;;;;11.23;1.70;;;;;;;1.23;54.83;99898.06;5038452;28;20470;-36
2023/11/17 10:43:11;;;;;;;9.38;1.60;;;;;;;1.46;54.64;99925.53;5037148;28;20041;-37
2023/11/17 10:45:39;;;;;;;3.50;1.38;;;;;;;1.45;54.94;99924.69;5023199;28;20076;-37
2023/11/17 10:48:12;;;;;;;1.95;0.80;;;;;;;1.47;54.99;99932.34;5031385;28;20041;-37
2023/11/17 10:50:45;;;;;;;6.88;1.13;;;;;;;1.48;55.22;99926.38;5031372;28;20664;-37
2023/11/17 10:53:19;;;;;;;12.95;1.25;;;;;;;1.55;55.09;99936.69;5039154;28;20049;-37
2023/11/17 10:55:53;;;;;;;1.27;0.90;;;;;;;1.53;55.03;99925.56;5052179;28;20574;-36
2023/11/17 10:58:19;;;;;;;2.80;1.40;;;;;;;1.56;54.68;99927.31;5035955;28;20053;-37
2023/11/17 11:00:48;;;;;;;3.53;1.08;;;;;;;1.46;54.52;99905.03;5039932;28;20048;-38
2023/11/17 11:03:15;;;;;;;2.50;0.97;;;;;;;1.46;54.56;99902.47;5037313;28;20183;-37
2023/11/17 11:05:46;;;;;;;6.80;1.40;;;;;;;1.69;54.61;99929.06;5043710;28;20288;-37
2023/11/17 11:08:22;;;;;;;7.35;2.13;;;;;;;1.78;54.63;99938.53;5037763;28;20061;-39
2023/11/17 11:10:55;;;;;;;10.68;1.75;;;;;;;1.88;54.04;99930.88;5013500;28;20033;-37
2023/11/17 11:13:29;;;;;;;7.03;2.13;;;;;;;1.93;53.66;99936.03;5038165;28;20060;-38
2023/11/17 11:16:07;;;;;;;2.78;1.60;;;;;;;1.94;53.09;99937.72;5040735;28;20053;-37
2023/11/17 11:18:37;;;;;;;4.50;1.80;;;;;;;1.88;52.97;99935.16;5050934;28;20041;-37
2023/11/17 11:21:03;;;;;;;;;;;;;;;1.92;52.67;99942.00;5038584;28;20055;-36
2023/11/17 11:23:31;;;;;;;5.38;1.17;;;;;;;1.81;52.32;99920.59;5040807;28;20380;-38
2023/11/17 11:25:59;;;;;;;9.55;1.80;;;;;;;1.89;52.46;99935.16;5031968;28;20516;-38
2023/11/17 11:28:25;;;;;;;3.80;1.17;;;;;;;1.59;52.31;99892.28;5028118;28;20145;-37
2023/11/17 11:30:56;;;;;;;13.40;2.22;;;;;;;1.89;52.20;99957.34;5027460;28;20107;-38
2023/11/17 11:33:22;;;;;;;7.63;2.20;;;;;;;1.71;52.08;99929.94;5032975;28;20142;-36
2023/11/17 11:35:50;;;;;;;3.92;1.35;;;;;;;1.88;52.66;99953.97;5054090;28;20069;-38
2023/11/17 11:38:16;;;;;;;9.73;1.67;;;;;;;1.74;52.49;99937.63;5028480;28;20052;-39
2023/11/17 11:40:43;;;;;;;4.88;1.48;;;;;;;1.80;52.44;99953.06;5038347;28;20124;-36
2023/11/17 11:43:10;;;;;;;12.32;1.95;;;;;;;1.77;52.35;99965.88;5032666;28;20045;-41
2023/11/17 11:45:37;;;;;;;9.52;2.05;;;;;;;1.72;52.86;99962.41;5032265;28;20037;-37